Time;durP1;ratioP1;P1;durP2;ratioP2;P2;SDS_P1;SDS_P2;PMS_P1;PMS_P2;Temp;Humidity;BMP_temperature;BMP_pressure;BME280_temperature;BME280_humidity;BME280_pressure;Samples;Min_cycle;Max_cycle;Signal;HPM_P1;HPM_P2
2022/08/29 00:01:27;;;;;;;5.10;2.10;;;;;;;15.59;74.73;100374.72;4981082;28;20366;-69
2022/08/29 00:03:54;;;;;;;6.80;2.33;;;;;;;15.61;74.10;100379.78;4989839;28;20270;-72
2022/08/29 00:06:20;;;;;;;6.77;2.40;;;;;;;15.54;74.33;100371.63;4987446;28;20657;-67
2022/08/29 00:08:45;;;;;;;5.27;2.10;;;;;;;15.46;74.48;100377.34;4983631;28;20211;-68
2022/08/29 00:11:11;;;;;;;4.13;2.43;;;;;;;15.40;76.66;100377.75;5000451;28;20353;-68
2022/08/29 00:13:36;;;;;;;5.23;2.27;;;;;;;15.40;76.16;100380.34;4998739;28;20180;-69
2022/08/29 00:16:02;;;;;;;4.60;2.27;;;;;;;15.36;76.90;100389.28;4991448;28;20619;-68
2022/08/29 00:18:28;;;;;;;4.67;2.50;;;;;;;15.25;76.10;100384.03;5007532;28;20291;-72
2022/08/29 00:20:53;;;;;;;4.17;2.40;;;;;;;15.25;74.44;100390.03;4988657;28;20237;-69
2022/08/29 00:23:18;;;;;;;5.33;2.30;;;;;;;15.21;73.23;100386.00;4990941;28;20183;-69
2022/08/29 00:25:44;;;;;;;5.33;2.13;;;;;;;15.14;73.20;100398.56;4991834;28;20214;-69
2022/08/29 00:28:09;;;;;;;4.37;2.40;;;;;;;15.17;74.23;100390.56;4989502;28;20187;-69
2022/08/29 00:30:36;;;;;;;4.77;1.97;;;;;;;15.13;74.59;100391.72;4990369;28;20259;-68
2022/08/29 00:33:02;;;;;;;5.57;2.70;;;;;;;15.12;75.06;100392.66;5010894;28;20247;-68
2022/08/29 00:35:34;;;;;;;3.57;2.20;;;;;;;15.10;75.21;100389.34;4994575;28;20752;-68
2022/08/29 00:38:00;;;;;;;6.97;2.43;;;;;;;15.06;75.65;100389.66;4984909;28;20184;-69
2022/08/29 00:40:30;;;;;;;6.67;2.50;;;;;;;15.06;74.61;100395.69;4981217;28;20642;-69
2022/08/29 00:42:56;;;;;;;8.60;2.33;;;;;;;15.02;73.90;100394.25;5002425;28;20655;-69
2022/08/29 00:45:22;;;;;;;5.67;2.50;;;;;;;15.01;73.69;100393.41;4992086;28;20180;-69
2022/08/29 00:47:57;;;;;;;6.83;2.60;;;;;;;14.93;74.71;100387.91;4996014;28;20590;-68
2022/08/29 00:50:30;;;;;;;5.50;2.13;;;;;;;14.88;76.19;100389.97;4984350;28;20305;-71
2022/08/29 00:52:57;;;;;;;3.90;2.30;;;;;;;14.90;75.07;100392.50;4981157;28;20584;-68
2022/08/29 00:55:27;;;;;;;6.67;2.40;;;;;;;14.84;76.46;100396.31;4990594;28;20616;-69
2022/08/29 00:57:57;;;;;;;5.60;2.80;;;;;;;14.87;75.80;100405.63;4993767;28;20187;-70
2022/08/29 01:00:24;;;;;;;4.40;2.63;;;;;;;14.85;78.87;100396.19;4984121;28;20374;-70
2022/08/29 01:02:50;;;;;;;5.93;2.30;;;;;;;14.84;78.83;100393.72;4992260;28;20727;-69
2022/08/29 01:05:18;;;;;;;5.17;2.40;;;;;;;14.84;78.53;100394.53;4995256;28;20266;-69
2022/08/29 01:07:44;;;;;;;8.57;3.00;;;;;;;14.87;76.03;100390.09;5010431;28;20191;-69
2022/08/29 01:12:14;;;;;;;6.07;2.37;;;;;;;14.79;76.21;100399.19;4980750;28;20187;-69
2022/08/29 01:12:56;;;;;;;4.20;2.37;;;;;;;14.70;78.25;100392.06;5004007;28;20518;-68
2022/08/29 01:15:21;;;;;;;2.73;2.00;;;;;;;14.71;78.28;100395.47;4994543;28;20175;-68
2022/08/29 01:17:48;;;;;;;6.57;2.60;;;;;;;14.67;76.96;100392.25;4995289;28;20187;-68
2022/08/29 01:20:24;;;;;;;4.47;2.33;;;;;;;14.62;77.92;100392.53;4986315;28;20253;-69
2022/08/29 01:23:23;;;;;;;6.83;2.77;;;;;;;14.50;78.75;100396.78;4993976;28;20556;-68
2022/08/29 01:25:50;;;;;;;6.03;2.30;;;;;;;14.50;80.55;100401.97;5034713;28;20196;-69
2022/08/29 01:28:23;;;;;;;8.70;2.03;;;;;;;14.49;80.56;100402.06;5034892;28;20193;-68
2022/08/29 01:31:09;;;;;;;6.47;2.30;;;;;;;14.37;79.64;100395.94;5024856;28;20229;-69
2022/08/29 01:33:42;;;;;;;2.80;2.10;;;;;;;14.29;82.14;100403.34;5044394;28;20237;-69
2022/08/29 01:36:11;;;;;;;5.97;2.27;;;;;;;14.42;80.96;100395.63;5034663;28;20270;-70
2022/08/29 01:38:38;;;;;;;4.43;2.03;;;;;;;14.34;79.72;100396.16;5051553;28;20196;-69
2022/08/29 01:41:04;;;;;;;7.20;2.17;;;;;;;14.32;78.87;100392.81;5024187;28;20236;-70
2022/08/29 01:43:39;;;;;;;4.77;2.23;;;;;;;14.29;79.91;100396.44;5034073;28;20215;-71
2022/08/29 01:46:05;;;;;;;5.87;2.83;;;;;;;14.36;81.27;100394.25;5034590;28;20177;-69
2022/08/29 01:48:30;;;;;;;7.10;2.70;;;;;;;14.28;82.07;100397.34;5052059;28;20263;-69
2022/08/29 01:50:55;;;;;;;5.70;2.53;;;;;;;14.26;82.34;100406.97;5041274;28;20683;-69
2022/08/29 01:53:21;;;;;;;4.33;2.70;;;;;;;14.22;81.67;100407.28;5034930;28;20276;-69
2022/08/29 01:55:46;;;;;;;6.30;2.30;;;;;;;14.22;82.53;100404.72;5050878;28;20709;-69
2022/08/29 01:58:12;;;;;;;5.13;2.37;;;;;;;14.20;83.73;100408.22;5051339;28;20185;-69
2022/08/29 02:00:38;;;;;;;4.90;2.33;;;;;;;14.16;80.42;100403.34;5041337;28;20257;-69
2022/08/29 02:03:04;;;;;;;3.77;2.07;;;;;;;14.09;80.53;100408.09;4997432;28;20643;-69
2022/08/29 02:05:30;;;;;;;6.13;2.60;;;;;;;14.06;81.25;100410.84;4989579;28;20180;-69
2022/08/29 02:07:56;;;;;;;7.67;2.93;;;;;;;14.07;81.55;100411.69;4990959;28;20184;-68
2022/08/29 02:10:22;;;;;;;5.07;2.23;;;;;;;14.00;83.38;100411.25;4981791;28;20176;-69
2022/08/29 02:12:47;;;;;;;5.20;2.30;;;;;;;13.94;86.65;100409.91;4989080;28;20265;-68
2022/08/29 02:15:12;;;;;;;6.17;2.67;;;;;;;14.01;83.95;100410.31;4993896;28;20187;-68
2022/08/29 02:17:38;;;;;;;3.33;2.20;;;;;;;14.00;82.35;100414.69;4994455;28;20603;-71
2022/08/29 02:20:07;;;;;;;4.20;2.60;;;;;;;14.00;85.33;100416.41;4983867;28;20211;-68
2022/08/29 02:22:34;;;;;;;5.67;2.33;;;;;;;14.00;84.99;100413.84;4996331;28;20938;-68
2022/08/29 02:25:01;;;;;;;4.17;2.63;;;;;;;13.96;83.59;100415.78;4987316;28;20211;-68
2022/08/29 02:27:26;;;;;;;5.83;2.33;;;;;;;13.95;83.16;100424.47;4983675;28;20175;-69
2022/08/29 02:29:51;;;;;;;4.90;2.20;;;;;;;13.96;82.51;100423.53;4992567;28;20212;-68
2022/08/29 02:32:17;;;;;;;4.67;2.50;;;;;;;13.95;83.59;100419.28;4991530;28;20238;-68
2022/08/29 02:34:44;;;;;;;7.80;2.40;;;;;;;13.95;83.68;100423.66;5006313;28;20233;-70
2022/08/29 02:37:10;;;;;;;4.90;2.30;;;;;;;13.88;84.54;100413.69;4989349;28;20191;-70
2022/08/29 02:39:35;;;;;;;4.57;2.40;;;;;;;13.86;84.18;100422.47;4977286;28;20220;-69
2022/08/29 02:42:01;;;;;;;6.23;2.87;;;;;;;13.81;84.67;100421.94;5005702;28;20234;-69
2022/08/29 02:44:27;;;;;;;8.77;3.03;;;;;;;13.72;87.62;100420.78;4979227;28;20194;-69
2022/08/29 02:46:52;;;;;;;6.80;2.80;;;;;;;13.82;88.32;100428.78;4993785;28;20215;-69
2022/08/29 02:49:17;;;;;;;3.03;2.27;;;;;;;13.86;88.30;100425.06;4993843;28;20545;-67
2022/08/29 02:51:43;;;;;;;6.17;2.67;;;;;;;13.85;86.68;100424.25;4996259;28;20258;-70
2022/08/29 02:54:08;;;;;;;4.13;2.30;;;;;;;13.84;85.63;100420.00;4995303;28;20188;-70
2022/08/29 02:56:34;;;;;;;4.33;2.13;;;;;;;13.80;85.17;100422.88;4992925;28;20266;-69
2022/08/29 02:59:00;;;;;;;5.57;2.33;;;;;;;13.67;86.86;100423.63;4993503;28;20193;-68
2022/08/29 03:01:26;;;;;;;5.23;2.10;;;;;;;13.64;89.74;100423.81;4972134;28;20254;-68
2022/08/29 03:03:52;;;;;;;4.37;2.17;;;;;;;13.71;88.59;100425.09;5000794;28;20623;-69
2022/08/29 03:06:19;;;;;;;8.63;2.63;;;;;;;13.70;87.45;100427.78;5007315;28;20188;-68
2022/08/29 03:08:45;;;;;;;5.47;2.23;;;;;;;13.68;86.68;100421.88;4993114;28;20222;-68
2022/08/29 03:11:10;;;;;;;4.63;2.80;;;;;;;13.56;88.29;100428.63;4984158;28;20270;-68
2022/08/29 03:13:36;;;;;;;6.63;2.77;;;;;;;13.60;90.99;100427.50;4999677;28;20658;-68
2022/08/29 03:16:02;;;;;;;6.57;2.57;;;;;;;13.60;89.42;100430.09;4989919;28;20238;-68
2022/08/29 03:18:29;;;;;;;6.40;2.40;;;;;;;13.57;89.45;100425.13;4988674;28;20192;-70
2022/08/29 03:20:54;;;;;;;4.93;2.03;;;;;;;13.57;90.55;100430.31;4993973;28;20318;-68
2022/08/29 03:23:20;;;;;;;4.73;2.47;;;;;;;13.55;89.51;100429.56;4987373;28;20179;-67
2022/08/29 03:25:45;;;;;;;7.97;2.40;;;;;;;13.53;88.53;100428.81;5007876;28;20650;-68
2022/08/29 03:28:11;;;;;;;6.17;2.53;;;;;;;13.40;92.15;100418.41;4990732;28;20206;-68
2022/08/29 03:30:36;;;;;;;4.97;2.37;;;;;;;13.56;91.13;100420.88;4966835;28;20674;-68
2022/08/29 03:33:04;;;;;;;6.17;2.90;;;;;;;13.60;91.74;100412.00;4997115;28;20613;-68
2022/08/29 03:35:30;;;;;;;7.20;2.33;;;;;;;13.54;89.75;100410.66;4991325;28;20198;-68
2022/08/29 03:37:55;;;;;;;3.43;2.10;;;;;;;13.53;90.95;100413.31;4987012;28;20199;-68
2022/08/29 03:40:22;;;;;;;5.30;2.00;;;;;;;13.48;89.62;100423.94;4980009;28;20218;-68
2022/08/29 03:42:47;;;;;;;7.20;2.30;;;;;;;13.44;89.84;100419.06;4988723;28;20584;-67
2022/08/29 03:45:16;;;;;;;4.83;2.50;;;;;;;13.32;94.27;100413.69;5000744;28;20183;-67
2022/08/29 03:47:41;;;;;;;4.47;2.20;;;;;;;13.44;92.87;100413.91;4988136;28;20230;-67
2022/08/29 03:50:08;;;;;;;3.90;2.40;;;;;;;13.42;90.49;100414.00;4974238;28;20642;-67
2022/08/29 03:52:33;;;;;;;4.80;2.73;;;;;;;13.33;93.80;100412.75;5006595;28;20203;-69
2022/08/29 03:54:59;;;;;;;5.93;2.60;;;;;;;13.42;93.88;100415.72;4987664;28;20184;-68
2022/08/29 03:57:25;;;;;;;4.00;2.37;;;;;;;13.36;92.01;100419.50;4986598;28;20201;-68
2022/08/29 03:59:50;;;;;;;6.90;2.60;;;;;;;13.42;92.33;100416.56;4992455;28;20217;-68
2022/08/29 04:02:17;;;;;;;6.90;2.57;;;;;;;13.35;94.35;100417.84;4981898;28;20673;-69
2022/08/29 04:07:27;;;;;;;8.77;2.27;;;;;;;13.40;90.96;100410.66;4974629;28;20191;-69
2022/08/29 04:09:52;;;;;;;8.33;3.20;;;;;;;13.33;90.86;100411.94;4986318;28;20247;-68
2022/08/29 04:12:18;;;;;;;6.33;2.37;;;;;;;13.21;92.62;100416.91;4988236;28;20689;-68
2022/08/29 04:14:43;;;;;;;5.73;2.47;;;;;;;13.16;91.54;100420.69;4986648;28;20187;-75
2022/08/29 04:17:09;;;;;;;7.30;2.77;;;;;;;13.21;93.83;100421.28;4988231;28;20687;-69
2022/08/29 04:19:35;;;;;;;4.63;2.50;;;;;;;13.12;92.42;100412.28;4976616;28;20678;-69
2022/08/29 04:22:02;;;;;;;6.37;2.30;;;;;;;13.04;93.76;100417.94;4966865;28;20237;-68
2022/08/29 04:24:29;;;;;;;2.53;2.30;;;;;;;13.09;94.79;100417.66;4971251;28;20183;-64
2022/08/29 04:26:55;;;;;;;4.90;2.67;;;;;;;13.16;94.04;100425.84;4972919;28;20546;-64
2022/08/29 04:29:20;;;;;;;3.83;2.47;;;;;;;13.23;92.02;100422.84;4973053;28;20203;-65
2022/08/29 04:31:45;;;;;;;7.00;2.60;;;;;;;13.31;90.29;100417.19;4984767;28;20230;-66
2022/08/29 04:34:12;;;;;;;5.20;2.20;;;;;;;13.22;90.67;100417.75;4988374;28;20255;-66
2022/08/29 04:36:44;;;;;;;6.07;2.53;;;;;;;13.27;92.24;100418.28;4990267;28;20188;-66
2022/08/29 04:39:10;;;;;;;3.33;2.33;;;;;;;13.21;95.24;100422.09;4976202;28;20645;-66
2022/08/29 04:41:37;;;;;;;5.27;3.03;;;;;;;13.22;97.00;100426.34;5008525;28;20233;-66
2022/08/29 04:44:04;;;;;;;3.73;2.60;;;;;;;13.43;95.64;100418.22;4992689;28;20179;-66
2022/08/29 04:46:30;;;;;;;7.20;2.70;;;;;;;13.60;92.01;100419.75;5007217;28;20266;-68
2022/08/29 04:48:56;;;;;;;6.37;2.40;;;;;;;13.56;91.64;100421.72;4988813;28;20196;-67
2022/08/29 04:51:21;;;;;;;4.93;2.80;;;;;;;13.62;91.90;100424.84;4992350;28;20609;-66
2022/08/29 04:53:48;;;;;;;4.33;2.23;;;;;;;13.62;90.10;100432.59;4987481;28;20632;-66
2022/08/29 04:56:13;;;;;;;7.93;2.60;;;;;;;13.62;90.02;100435.16;4991507;28;20188;-69
2022/08/29 04:58:41;;;;;;;5.43;2.63;;;;;;;13.51;89.35;100435.84;4992229;28;20191;-67
2022/08/29 05:01:11;;;;;;;5.20;2.40;;;;;;;13.50;89.47;100442.75;4989867;28;20253;-67
2022/08/29 05:03:37;;;;;;;4.53;2.50;;;;;;;13.63;89.30;100436.84;4987349;28;20184;-66
2022/08/29 05:06:07;;;;;;;6.73;2.80;;;;;;;13.68;87.87;100442.53;4987920;28;20194;-66
2022/08/29 05:08:35;;;;;;;5.77;2.93;;;;;;;13.77;86.85;100441.13;5006952;28;20186;-66
2022/08/29 05:11:01;;;;;;;5.60;2.97;;;;;;;13.91;86.92;100443.69;4981450;28;20227;-66
2022/08/29 05:13:27;;;;;;;5.63;2.67;;;;;;;13.97;88.45;100445.91;4987263;28;20168;-66
2022/08/29 05:15:52;;;;;;;2.90;2.20;;;;;;;14.19;84.97;100445.34;4999508;28;20203;-66
2022/08/29 05:18:18;;;;;;;4.40;2.30;;;;;;;14.32;85.96;100450.56;4991378;28;20188;-67
2022/08/29 05:20:46;;;;;;;4.93;2.40;;;;;;;14.55;85.15;100450.00;5003165;28;20334;-68
2022/08/29 05:23:12;;;;;;;5.53;2.67;;;;;;;14.74;83.40;100447.06;4990644;28;20184;-66
2022/08/29 05:25:39;;;;;;;5.90;2.80;;;;;;;14.89;83.51;100433.09;4984615;28;20258;-66
2022/08/29 05:28:04;;;;;;;4.83;2.73;;;;;;;15.07;81.49;100435.34;5009800;28;20183;-67
2022/08/29 05:30:30;;;;;;;4.93;2.70;;;;;;;15.27;83.22;100433.97;4994466;28;20236;-67
2022/08/29 05:32:57;;;;;;;4.97;2.70;;;;;;;15.44;78.18;100435.41;4996492;28;20734;-67
2022/08/29 05:35:23;;;;;;;5.37;3.30;;;;;;;15.46;75.88;100433.53;4996164;28;20222;-67
2022/08/29 05:37:48;;;;;;;8.00;3.17;;;;;;;15.62;77.09;100436.72;4993507;28;20257;-68
2022/08/29 05:40:14;;;;;;;4.73;2.83;;;;;;;15.73;76.94;100438.56;4985947;28;20234;-67
2022/08/29 05:42:40;;;;;;;9.27;3.27;;;;;;;15.97;74.94;100438.59;5019394;28;20263;-67
2022/08/29 05:45:06;;;;;;;4.43;2.97;;;;;;;16.14;74.20;100442.56;4994001;28;20183;-67
2022/08/29 05:47:32;;;;;;;6.80;3.20;;;;;;;16.32;73.99;100441.34;4994772;28;20183;-67
2022/08/29 05:49:59;;;;;;;4.57;2.80;;;;;;;16.63;73.38;100450.28;4989824;28;20235;-69
2022/08/29 05:52:25;;;;;;;4.83;2.73;;;;;;;16.93;74.58;100433.34;4983342;28;20239;-67
2022/08/29 05:54:51;;;;;;;12.00;3.50;;;;;;;17.12;72.41;100450.97;4989377;28;20195;-67
2022/08/29 05:57:19;;;;;;;7.23;3.10;;;;;;;17.18;71.06;100444.47;4988985;28;20573;-68
2022/08/29 05:59:44;;;;;;;8.57;3.13;;;;;;;16.97;70.68;100445.19;5009348;28;20183;-67
2022/08/29 06:02:10;;;;;;;10.57;3.00;;;;;;;16.97;70.75;100449.53;5001553;28;20287;-67
2022/08/29 06:04:37;;;;;;;6.90;2.77;;;;;;;16.91;70.23;100446.47;5008911;28;20294;-66
2022/08/29 06:07:04;;;;;;;9.67;2.57;;;;;;;16.92;71.05;100455.91;5009348;28;20188;-68
2022/08/29 06:09:30;;;;;;;7.47;2.67;;;;;;;16.94;70.83;100451.44;4992306;28;20619;-67
2022/08/29 06:11:57;;;;;;;11.10;3.10;;;;;;;17.04;71.28;100453.34;5002285;28;20231;-67
2022/08/29 06:14:22;;;;;;;5.37;2.50;;;;;;;17.11;68.39;100457.13;4993986;28;20690;-67
2022/08/29 06:16:48;;;;;;;7.43;2.70;;;;;;;17.20;69.28;100456.41;4994247;28;20286;-66
2022/08/29 06:19:13;;;;;;;7.47;2.70;;;;;;;17.25;68.67;100475.09;4989548;28;20254;-70
2022/08/29 06:21:39;;;;;;;6.57;2.67;;;;;;;17.26;66.70;100476.72;4994725;28;20230;-68
2022/08/29 06:24:05;;;;;;;10.97;3.00;;;;;;;17.33;62.48;100479.69;4988689;28;20188;-67
2022/08/29 06:26:30;;;;;;;5.83;2.20;;;;;;;17.37;61.86;100472.50;4990665;28;20191;-68
2022/08/29 06:28:56;;;;;;;7.70;2.80;;;;;;;17.21;61.78;100476.25;4993628;28;20593;-67
2022/08/29 06:31:25;;;;;;;7.13;2.67;;;;;;;17.16;61.73;100483.59;5005295;28;20232;-66
2022/08/29 06:33:52;;;;;;;6.80;2.50;;;;;;;17.27;61.02;100495.78;4998215;28;20250;-66
2022/08/29 06:36:17;;;;;;;6.87;3.27;;;;;;;17.21;61.71;100489.25;4991890;28;20192;-66
2022/08/29 06:38:42;;;;;;;7.10;3.07;;;;;;;17.51;60.71;100494.81;4979450;28;20271;-67
2022/08/29 06:41:14;;;;;;;5.73;2.53;;;;;;;18.24;56.96;100489.97;4996660;28;20261;-66
2022/08/29 06:43:41;;;;;;;7.57;2.90;;;;;;;19.57;51.52;100488.56;4994847;28;20183;-70
2022/08/29 06:46:07;;;;;;;10.47;2.80;;;;;;;19.81;49.98;100488.22;4988326;28;20584;-67
2022/08/29 06:48:34;;;;;;;6.93;3.03;;;;;;;21.22;46.31;100486.94;4984971;28;20237;-67
2022/08/29 06:51:01;;;;;;;6.43;2.77;;;;;;;22.25;42.13;100481.50;4981799;28;20281;-67
2022/08/29 06:53:27;;;;;;;6.90;3.20;;;;;;;22.88;40.10;100487.56;4983107;28;20591;-67
2022/08/29 06:55:54;;;;;;;6.53;2.50;;;;;;;23.53;38.21;100488.88;4990601;28;20660;-66
2022/08/29 06:58:20;;;;;;;8.00;2.47;;;;;;;24.42;37.62;100498.06;4993094;28;20175;-67
2022/08/29 07:00:45;;;;;;;6.73;2.80;;;;;;;25.56;35.01;100501.44;4971754;28;20313;-67
2022/08/29 07:03:11;;;;;;;6.35;2.97;;;;;;;25.19;34.84;100500.25;4992133;28;20199;-65
2022/08/29 07:05:37;;;;;;;5.50;3.00;;;;;;;25.12;34.74;100508.00;4992690;28;20220;-65
2022/08/29 07:08:02;;;;;;;4.55;2.42;;;;;;;25.93;33.32;100494.63;4991427;28;20222;-66
2022/08/29 07:10:28;;;;;;;7.00;3.13;;;;;;;25.20;34.40;100501.06;4981281;28;20593;-65
2022/08/29 07:12:53;;;;;;;9.57;2.60;;;;;;;25.33;33.92;100513.69;5001655;28;20223;-65
2022/08/29 07:15:20;;;;;;;6.55;2.50;;;;;;;24.29;35.46;100507.25;4980267;28;20192;-65
2022/08/29 07:17:46;;;;;;;7.28;2.80;;;;;;;23.71;36.88;100500.25;5000607;28;20195;-65
2022/08/29 07:20:12;;;;;;;5.95;2.78;;;;;;;24.71;35.31;100496.75;4979382;28;20208;-65
2022/08/29 07:22:37;;;;;;;4.38;2.40;;;;;;;23.53;36.91;100509.06;4984611;28;20233;-65
2022/08/29 07:25:03;;;;;;;5.97;2.50;;;;;;;24.21;36.72;100503.81;4992066;28;20189;-65
2022/08/29 07:27:28;;;;;;;8.93;3.00;;;;;;;24.02;36.78;100511.00;4992949;28;20208;-67
2022/08/29 07:29:53;;;;;;;4.25;2.30;;;;;;;24.91;35.60;100507.75;4993932;28;20206;-66
2022/08/29 07:32:19;;;;;;;3.90;2.38;;;;;;;25.61;33.44;100514.09;4970624;28;20446;-66
2022/08/29 07:34:44;;;;;;;8.80;3.30;;;;;;;25.66;33.82;100517.03;4989044;28;20187;-66
2022/08/29 07:37:09;;;;;;;7.55;2.50;;;;;;;25.43;34.62;100499.38;4988098;28;20203;-66
2022/08/29 07:39:35;;;;;;;5.18;2.17;;;;;;;26.39;33.35;100508.84;4981587;28;20346;-66
2022/08/29 07:42:01;;;;;;;7.25;3.10;;;;;;;27.27;31.37;100513.59;4994627;28;20720;-66
2022/08/29 07:44:26;;;;;;;10.45;3.30;;;;;;;25.47;33.61;100509.56;4992594;28;20186;-66
2022/08/29 07:46:56;;;;;;;4.70;2.70;;;;;;;24.10;35.96;100505.78;4992633;28;20187;-65
2022/08/29 07:49:27;;;;;;;7.38;2.90;;;;;;;23.40;37.08;100509.50;5007443;28;20175;-66
2022/08/29 07:51:54;;;;;;;9.93;3.03;;;;;;;22.61;39.20;100508.66;4981416;28;20258;-66
2022/08/29 07:54:21;;;;;;;6.57;2.60;;;;;;;22.44;39.76;100500.69;4988180;28;20639;-66
2022/08/29 07:56:49;;;;;;;8.13;3.17;;;;;;;22.78;39.66;100501.75;4987824;28;20311;-66
2022/08/29 07:59:16;;;;;;;9.43;2.73;;;;;;;23.04;39.61;100499.94;4987482;28;20278;-66
2022/08/29 08:01:42;;;;;;;8.50;2.97;;;;;;;23.24;38.43;100496.31;4995062;28;20278;-66
2022/08/29 08:04:09;;;;;;;7.00;2.90;;;;;;;22.69;39.36;100499.06;4987708;28;20324;-66
2022/08/29 08:06:39;;;;;;;7.23;2.90;;;;;;;22.37;40.24;100504.84;4992381;28;20183;-66
2022/08/29 08:09:06;;;;;;;7.73;2.60;;;;;;;22.92;39.07;100509.03;5007619;28;20782;-66
2022/08/29 08:11:31;;;;;;;7.87;2.70;;;;;;;23.34;38.19;100504.88;5000418;28;20222;-66
2022/08/29 08:13:57;;;;;;;5.20;2.17;;;;;;;23.43;38.17;100503.09;4996137;28;20190;-68
2022/08/29 08:16:26;;;;;;;7.53;3.13;;;;;;;22.87;38.70;100506.91;4987883;28;20187;-66
2022/08/29 08:18:52;;;;;;;6.20;3.03;;;;;;;23.15;39.39;100504.09;4981138;28;20278;-66
2022/08/29 08:21:17;;;;;;;7.80;2.90;;;;;;;23.92;37.88;100515.59;4982423;28;20281;-67
2022/08/29 08:23:43;;;;;;;7.17;2.70;;;;;;;24.64;37.34;100507.91;4997932;28;20192;-66
2022/08/29 08:26:10;;;;;;;7.13;2.60;;;;;;;24.28;37.10;100512.69;4991994;28;20266;-68
2022/08/29 08:28:36;;;;;;;8.52;3.03;;;;;;;24.63;36.42;100514.16;5007398;28;20175;-66
2022/08/29 08:31:04;;;;;;;10.48;3.45;;;;;;;24.94;35.98;100510.03;4994159;28;20236;-66
2022/08/29 08:33:29;;;;;;;7.00;2.30;;;;;;;24.83;35.94;100507.75;4989314;28;20180;-66
2022/08/29 08:35:56;;;;;;;6.28;2.97;;;;;;;24.22;36.71;100518.59;4988905;28;20570;-66
2022/08/29 08:38:21;;;;;;;7.05;2.97;;;;;;;24.18;37.73;100507.59;4990699;28;20196;-66
2022/08/29 08:41:04;;;;;;;6.15;3.10;;;;;;;24.36;36.96;100517.13;4988937;28;20230;-66
2022/08/29 08:43:47;;;;;;;4.15;2.42;;;;;;;24.73;36.63;100514.00;5006616;28;20219;-66
2022/08/29 08:46:13;;;;;;;9.23;3.30;;;;;;;25.24;35.02;100520.78;4987033;28;20180;-66
2022/08/29 08:48:39;;;;;;;8.23;2.75;;;;;;;27.98;30.73;100512.97;4984339;28;20222;-66
2022/08/29 08:51:18;;;;;;;7.72;2.95;;;;;;;28.52;30.40;100516.94;4980316;28;20464;-66
2022/08/29 08:53:49;;;;;;;4.47;2.72;;;;;;;28.91;29.40;100522.72;4985956;28;20190;-67
2022/08/29 08:56:21;;;;;;;12.18;3.10;;;;;;;27.41;30.70;100525.97;4990721;28;20609;-66
2022/08/29 08:59:05;;;;;;;7.00;3.10;;;;;;;27.59;30.88;100522.94;5003300;28;20211;-66
2022/08/29 09:01:37;;;;;;;5.80;2.97;;;;;;;27.38;31.53;100521.84;4984220;28;20281;-66
2022/08/29 09:04:24;;;;;;;10.13;3.20;;;;;;;26.80;32.28;100524.31;4987863;28;20186;-66
2022/08/29 09:07:05;;;;;;;5.60;2.80;;;;;;;26.20;32.26;100521.50;4990994;28;20263;-66
2022/08/29 09:09:40;;;;;;;6.13;3.10;;;;;;;25.19;34.01;100523.13;4991374;28;20198;-66
2022/08/29 09:12:05;;;;;;;8.02;3.60;;;;;;;23.99;36.52;100522.66;4983549;28;20293;-66
2022/08/29 09:14:41;;;;;;;8.15;3.17;;;;;;;24.74;36.28;100523.53;4991230;28;20548;-66
2022/08/29 09:17:15;;;;;;;6.43;2.35;;;;;;;25.54;34.27;100521.88;4991224;28;20187;-66
2022/08/29 09:19:41;;;;;;;7.65;2.70;;;;;;;25.47;34.72;100528.00;4990326;28;20318;-66
2022/08/29 09:22:15;;;;;;;9.40;3.45;;;;;;;26.78;32.44;100528.13;4983288;28;20227;-66
2022/08/29 09:24:53;;;;;;;7.13;2.67;;;;;;;26.86;32.02;100520.94;5005654;28;20183;-66
2022/08/29 09:27:21;;;;;;;7.78;3.17;;;;;;;27.57;30.69;100527.59;5010321;28;20187;-68
2022/08/29 09:29:53;;;;;;;5.53;2.63;;;;;;;28.89;29.12;100519.44;4992231;28;20200;-67
2022/08/29 09:32:19;;;;;;;6.43;3.10;;;;;;;27.10;31.19;100523.50;4995898;28;20238;-67
2022/08/29 09:34:46;;;;;;;8.68;2.80;;;;;;;26.87;31.45;100521.78;4998265;28;20588;-66
2022/08/29 09:37:32;;;;;;;4.95;2.60;;;;;;;27.75;30.46;100523.72;4990374;28;20217;-66
2022/08/29 09:40:09;;;;;;;4.35;2.42;;;;;;;28.87;29.45;100517.00;4980447;28;20236;-79
2022/08/29 09:42:36;;;;;;;6.80;2.92;;;;;;;30.30;26.98;100526.06;4994138;28;20236;-67
2022/08/29 09:45:14;;;;;;;5.97;2.92;;;;;;;29.85;27.61;100528.44;4993358;28;20194;-66
2022/08/29 09:47:39;;;;;;;3.97;2.45;;;;;;;27.68;29.32;100529.75;5009939;28;20559;-66
2022/08/29 09:50:23;;;;;;;7.50;3.05;;;;;;;27.49;29.99;100517.16;4980543;28;20190;-66
2022/08/29 09:52:58;;;;;;;6.70;2.50;;;;;;;29.29;27.91;100519.69;4992685;28;20199;-68
2022/08/29 09:55:39;;;;;;;6.53;2.28;;;;;;;29.35;27.81;100520.72;4989892;28;20330;-66
2022/08/29 09:58:23;;;;;;;9.07;2.67;;;;;;;29.41;27.83;100526.06;4996646;28;20281;-67
2022/08/29 10:01:02;;;;;;;6.63;2.55;;;;;;;29.22;27.32;100516.97;5002574;28;20234;-68
2022/08/29 10:03:33;;;;;;;6.32;3.28;;;;;;;28.15;28.73;100513.59;4990253;28;20188;-66
2022/08/29 10:06:14;;;;;;;7.53;2.90;;;;;;;27.99;28.47;100511.97;4986203;28;20210;-67
2022/08/29 10:08:41;;;;;;;7.13;2.30;;;;;;;28.08;28.44;100496.84;4989951;28;20183;-66
2022/08/29 10:11:15;;;;;;;9.85;3.25;;;;;;;28.85;27.73;100499.69;4988690;28;20748;-66
2022/08/29 10:13:54;;;;;;;4.45;2.47;;;;;;;29.95;26.54;100507.69;5000094;28;20176;-66
2022/08/29 10:18:19;;;;;;;4.85;2.30;;;;;;;28.12;28.64;100506.03;4992213;28;20179;-66
2022/08/29 10:19:44;;;;;;;5.82;2.60;;;;;;;28.08;28.61;100510.06;4993894;28;20217;-68
2022/08/29 10:22:34;;;;;;;4.25;2.22;;;;;;;29.23;26.28;100509.88;4998858;28;20305;-67
2022/08/29 10:25:26;;;;;;;4.18;2.20;;;;;;;29.01;27.13;100498.53;4993778;28;20176;-66
2022/08/29 10:28:05;;;;;;;5.78;2.50;;;;;;;28.80;27.07;100509.03;4994079;28;20282;-66
2022/08/29 10:30:44;;;;;;;7.35;2.72;;;;;;;28.99;26.58;100507.50;4976227;28;20292;-66
2022/08/29 10:33:53;;;;;;;6.05;2.55;;;;;;;29.72;25.68;100510.66;4978866;28;20698;-67
2022/08/29 10:36:34;;;;;;;3.50;2.05;;;;;;;28.70;27.25;100503.25;4987504;28;20241;-68
2022/08/29 10:39:04;;;;;;;3.47;2.20;;;;;;;27.20;29.56;100495.84;4990905;28;20203;-67
2022/08/29 10:41:34;;;;;;;4.70;2.42;;;;;;;26.78;29.83;100499.09;4993069;28;20583;-67
2022/08/29 10:44:21;;;;;;;6.60;2.20;;;;;;;25.27;32.00;100500.22;4999420;28;20236;-65
2022/08/29 10:47:08;;;;;;;4.95;2.58;;;;;;;24.65;33.05;100490.34;4993775;28;20183;-65
2022/08/29 10:49:43;;;;;;;5.28;2.67;;;;;;;24.61;33.91;100479.31;4993990;28;20520;-66
2022/08/29 10:52:17;;;;;;;4.45;2.40;;;;;;;24.46;34.21;100476.53;5000880;28;20234;-67
2022/08/29 10:54:53;;;;;;;8.90;2.45;;;;;;;24.87;33.86;100472.22;5008350;28;20203;-66
2022/08/29 10:57:44;;;;;;;6.63;2.75;;;;;;;24.40;34.14;100469.31;4993550;28;20266;-69
2022/08/29 11:00:27;;;;;;;10.95;2.55;;;;;;;24.65;34.26;100467.50;4969085;28;20212;-66
2022/08/29 11:03:42;;;;;;;6.13;2.37;;;;;;;24.75;33.90;100469.94;4993750;28;20214;-66
2022/08/29 11:06:11;;;;;;;5.43;2.40;;;;;;;24.67;34.32;100466.50;4990576;28;20179;-66
2022/08/29 11:08:44;;;;;;;6.97;2.53;;;;;;;24.56;34.20;100472.91;4991005;28;20175;-65
2022/08/29 11:11:13;;;;;;;11.13;2.80;;;;;;;24.58;34.39;100470.94;4980752;28;20270;-66
2022/08/29 11:13:52;;;;;;;7.80;3.23;;;;;;;24.61;34.44;100471.44;4990956;28;20322;-68
2022/08/29 11:16:26;;;;;;;4.67;2.30;;;;;;;24.18;34.93;100465.53;4963918;28;20748;-65
2022/08/29 11:19:01;;;;;;;7.17;2.77;;;;;;;24.60;34.62;100459.25;4974655;28;20186;-66
2022/08/29 11:21:48;;;;;;;8.07;2.47;;;;;;;24.91;34.11;100458.56;4964224;28;20222;-66
2022/08/29 11:24:15;;;;;;;4.43;2.30;;;;;;;24.80;33.63;100461.56;4973802;28;20273;-66
2022/08/29 11:26:43;;;;;;;7.40;2.40;;;;;;;24.60;33.75;100455.81;4990766;28;20184;-66
2022/08/29 11:29:40;;;;;;;6.83;2.57;;;;;;;24.86;34.12;100455.63;4990781;28;20207;-67
2022/08/29 11:32:16;;;;;;;6.07;2.60;;;;;;;25.23;33.24;100442.81;4925053;28;20260;-66
2022/08/29 11:35:02;;;;;;;6.93;2.40;;;;;;;25.25;32.82;100448.72;4967879;28;20183;-66
2022/08/29 11:37:47;;;;;;;4.60;2.37;;;;;;;24.85;33.50;100450.53;4975607;28;20188;-66